sensor_id;sensor_type;location;lat;lon;timestamp;P1;durP1;ratioP1;P2;durP2;ratioP2
20525;SDS011;10421;49.142;9.232;2022-09-09T00:01:40;2.73;;;2.47;;
20525;SDS011;10421;49.142;9.232;2022-09-09T00:04:17;4.17;;;3.40;;
20525;SDS011;10421;49.142;9.232;2022-09-09T00:06:55;4.00;;;2.43;;
20525;SDS011;10421;49.142;9.232;2022-09-09T00:09:29;2.93;;;2.00;;
20525;SDS011;10421;49.142;9.232;2022-09-09T00:12:04;5.57;;;1.80;;
20525;SDS011;10421;49.142;9.232;2022-09-09T00:14:39;3.20;;;2.40;;
20525;SDS011;10421;49.142;9.232;2022-09-09T00:17:14;4.20;;;2.27;;
20525;SDS011;10421;49.142;9.232;2022-09-09T00:19:53;4.30;;;2.10;;
20525;SDS011;10421;49.142;9.232;2022-09-09T00:22:25;3.13;;;2.57;;
20525;SDS011;10421;49.142;9.232;2022-09-09T00:24:56;4.13;;;2.13;;
20525;SDS011;10421;49.142;9.232;2022-09-09T00:27:29;4.20;;;1.80;;
20525;SDS011;10421;49.142;9.232;2022-09-09T00:30:12;2.60;;;1.70;;
20525;SDS011;10421;49.142;9.232;2022-09-09T00:32:44;4.70;;;2.30;;
20525;SDS011;10421;49.142;9.232;2022-09-09T00:35:16;2.40;;;1.73;;
20525;SDS011;10421;49.142;9.232;2022-09-09T00:37:47;1.60;;;1.50;;
20525;SDS011;10421;49.142;9.232;2022-09-09T00:40:20;1.97;;;1.70;;
20525;SDS011;10421;49.142;9.232;2022-09-09T00:42:52;3.00;;;1.47;;
20525;SDS011;10421;49.142;9.232;2022-09-09T00:45:37;1.93;;;1.30;;
20525;SDS011;10421;49.142;9.232;2022-09-09T00:48:19;1.37;;;1.20;;
20525;SDS011;10421;49.142;9.232;2022-09-09T00:50:56;1.57;;;1.40;;
20525;SDS011;10421;49.142;9.232;2022-09-09T00:53:29;2.53;;;1.10;;
20525;SDS011;10421;49.142;9.232;2022-09-09T00:56:06;1.30;;;1.20;;
20525;SDS011;10421;49.142;9.232;2022-09-09T00:58:38;3.83;;;1.10;;
20525;SDS011;10421;49.142;9.232;2022-09-09T01:01:09;1.37;;;1.27;;
20525;SDS011;10421;49.142;9.232;2022-09-09T01:03:38;2.67;;;1.40;;
20525;SDS011;10421;49.142;9.232;2022-09-09T01:06:16;2.83;;;1.30;;
20525;SDS011;10421;49.142;9.232;2022-09-09T01:11:41;2.80;;;1.53;;
20525;SDS011;10421;49.142;9.232;2022-09-09T01:14:18;3.40;;;1.63;;
20525;SDS011;10421;49.142;9.232;2022-09-09T01:16:53;1.80;;;1.30;;
20525;SDS011;10421;49.142;9.232;2022-09-09T01:19:32;3.00;;;1.33;;
20525;SDS011;10421;49.142;9.232;2022-09-09T01:22:10;1.93;;;1.30;;
20525;SDS011;10421;49.142;9.232;2022-09-09T01:24:50;4.00;;;1.33;;
20525;SDS011;10421;49.142;9.232;2022-09-09T01:27:33;2.10;;;1.20;;
20525;SDS011;10421;49.142;9.232;2022-09-09T01:30:02;1.57;;;1.20;;
20525;SDS011;10421;49.142;9.232;2022-09-09T01:32:39;1.83;;;1.40;;
20525;SDS011;10421;49.142;9.232;2022-09-09T01:35:09;2.50;;;1.00;;
20525;SDS011;10421;49.142;9.232;2022-09-09T01:37:39;3.50;;;1.37;;
20525;SDS011;10421;49.142;9.232;2022-09-09T01:40:06;3.53;;;1.13;;
20525;SDS011;10421;49.142;9.232;2022-09-09T01:42:35;1.50;;;1.40;;
20525;SDS011;10421;49.142;9.232;2022-09-09T01:45:02;1.40;;;1.23;;
20525;SDS011;10421;49.142;9.232;2022-09-09T01:47:30;1.47;;;1.33;;
20525;SDS011;10421;49.142;9.232;2022-09-09T01:49:56;4.00;;;1.20;;
20525;SDS011;10421;49.142;9.232;2022-09-09T01:52:24;4.20;;;1.40;;
20525;SDS011;10421;49.142;9.232;2022-09-09T01:54:51;4.80;;;1.53;;
20525;SDS011;10421;49.142;9.232;2022-09-09T01:57:18;2.47;;;1.50;;
20525;SDS011;10421;49.142;9.232;2022-09-09T01:59:53;1.57;;;1.00;;
20525;SDS011;10421;49.142;9.232;2022-09-09T02:02:30;2.73;;;1.60;;
20525;SDS011;10421;49.142;9.232;2022-09-09T02:05:04;1.50;;;1.23;;
20525;SDS011;10421;49.142;9.232;2022-09-09T02:07:39;2.23;;;1.50;;
20525;SDS011;10421;49.142;9.232;2022-09-09T02:10:09;1.87;;;1.00;;
20525;SDS011;10421;49.142;9.232;2022-09-09T02:12:39;1.63;;;1.27;;
20525;SDS011;10421;49.142;9.232;2022-09-09T02:15:13;1.23;;;1.13;;
20525;SDS011;10421;49.142;9.232;2022-09-09T02:17:46;3.23;;;1.30;;
20525;SDS011;10421;49.142;9.232;2022-09-09T02:20:14;1.90;;;1.20;;
20525;SDS011;10421;49.142;9.232;2022-09-09T02:22:43;2.20;;;1.30;;
20525;SDS011;10421;49.142;9.232;2022-09-09T02:25:12;1.63;;;1.30;;
20525;SDS011;10421;49.142;9.232;2022-09-09T02:27:41;3.13;;;1.27;;
20525;SDS011;10421;49.142;9.232;2022-09-09T02:30:13;1.73;;;1.27;;
20525;SDS011;10421;49.142;9.232;2022-09-09T02:32:41;4.43;;;1.30;;
20525;SDS011;10421;49.142;9.232;2022-09-09T02:35:10;1.90;;;1.10;;
20525;SDS011;10421;49.142;9.232;2022-09-09T02:37:41;1.17;;;1.07;;
20525;SDS011;10421;49.142;9.232;2022-09-09T02:40:11;1.70;;;1.40;;
20525;SDS011;10421;49.142;9.232;2022-09-09T02:42:40;1.83;;;1.30;;
20525;SDS011;10421;49.142;9.232;2022-09-09T02:45:09;2.70;;;1.50;;
20525;SDS011;10421;49.142;9.232;2022-09-09T02:47:40;1.73;;;1.63;;
20525;SDS011;10421;49.142;9.232;2022-09-09T02:50:15;4.03;;;1.97;;
20525;SDS011;10421;49.142;9.232;2022-09-09T02:52:48;1.80;;;1.70;;
20525;SDS011;10421;49.142;9.232;2022-09-09T02:55:28;2.93;;;1.40;;
20525;SDS011;10421;49.142;9.232;2022-09-09T02:58:01;1.87;;;1.40;;
20525;SDS011;10421;49.142;9.232;2022-09-09T03:00:31;1.73;;;1.17;;
20525;SDS011;10421;49.142;9.232;2022-09-09T03:02:59;1.83;;;1.47;;
20525;SDS011;10421;49.142;9.232;2022-09-09T03:05:26;2.67;;;1.50;;
20525;SDS011;10421;49.142;9.232;2022-09-09T03:07:53;4.47;;;1.50;;
20525;SDS011;10421;49.142;9.232;2022-09-09T03:10:20;2.70;;;1.77;;
20525;SDS011;10421;49.142;9.232;2022-09-09T03:12:46;1.53;;;1.43;;
20525;SDS011;10421;49.142;9.232;2022-09-09T03:15:13;3.30;;;1.17;;
20525;SDS011;10421;49.142;9.232;2022-09-09T03:17:40;1.63;;;1.13;;
20525;SDS011;10421;49.142;9.232;2022-09-09T03:20:09;1.83;;;1.33;;
20525;SDS011;10421;49.142;9.232;2022-09-09T03:22:35;1.43;;;1.20;;
20525;SDS011;10421;49.142;9.232;2022-09-09T03:25:02;4.50;;;1.63;;
20525;SDS011;10421;49.142;9.232;2022-09-09T03:27:31;3.50;;;1.43;;
20525;SDS011;10421;49.142;9.232;2022-09-09T03:29:57;1.50;;;1.40;;
20525;SDS011;10421;49.142;9.232;2022-09-09T03:32:25;2.93;;;1.53;;
20525;SDS011;10421;49.142;9.232;2022-09-09T03:34:52;1.57;;;1.47;;
20525;SDS011;10421;49.142;9.232;2022-09-09T03:37:20;2.50;;;1.33;;
20525;SDS011;10421;49.142;9.232;2022-09-09T03:39:47;3.73;;;1.20;;
20525;SDS011;10421;49.142;9.232;2022-09-09T03:42:15;4.00;;;1.77;;
20525;SDS011;10421;49.142;9.232;2022-09-09T03:44:44;1.83;;;1.20;;
20525;SDS011;10421;49.142;9.232;2022-09-09T03:47:12;3.10;;;1.30;;
20525;SDS011;10421;49.142;9.232;2022-09-09T03:49:39;1.77;;;1.40;;
20525;SDS011;10421;49.142;9.232;2022-09-09T03:52:05;1.80;;;1.30;;
20525;SDS011;10421;49.142;9.232;2022-09-09T03:54:33;3.03;;;1.53;;
20525;SDS011;10421;49.142;9.232;2022-09-09T03:57:00;1.10;;;1.00;;
20525;SDS011;10421;49.142;9.232;2022-09-09T03:59:27;4.30;;;1.10;;
20525;SDS011;10421;49.142;9.232;2022-09-09T04:01:55;1.60;;;1.10;;
20525;SDS011;10421;49.142;9.232;2022-09-09T04:04:22;4.97;;;1.70;;
20525;SDS011;10421;49.142;9.232;2022-09-09T04:06:49;3.07;;;1.30;;
20525;SDS011;10421;49.142;9.232;2022-09-09T04:09:15;1.70;;;1.60;;
20525;SDS011;10421;49.142;9.232;2022-09-09T04:11:43;1.53;;;1.43;;
20525;SDS011;10421;49.142;9.232;2022-09-09T04:14:11;2.60;;;1.30;;
20525;SDS011;10421;49.142;9.232;2022-09-09T04:16:38;1.47;;;1.00;;
20525;SDS011;10421;49.142;9.232;2022-09-09T04:19:09;9.17;;;1.77;;
20525;SDS011;10421;49.142;9.232;2022-09-09T04:21:37;1.37;;;1.17;;
20525;SDS011;10421;49.142;9.232;2022-09-09T04:24:05;2.63;;;1.60;;
20525;SDS011;10421;49.142;9.232;2022-09-09T04:26:33;1.57;;;1.17;;
20525;SDS011;10421;49.142;9.232;2022-09-09T04:29:02;2.90;;;0.90;;
20525;SDS011;10421;49.142;9.232;2022-09-09T04:31:29;2.50;;;1.40;;
20525;SDS011;10421;49.142;9.232;2022-09-09T04:33:56;1.93;;;1.27;;
20525;SDS011;10421;49.142;9.232;2022-09-09T04:36:23;3.50;;;1.13;;
20525;SDS011;10421;49.142;9.232;2022-09-09T04:38:49;1.50;;;1.20;;
20525;SDS011;10421;49.142;9.232;2022-09-09T04:41:16;2.17;;;1.20;;
20525;SDS011;10421;49.142;9.232;2022-09-09T04:43:43;2.20;;;1.30;;
20525;SDS011;10421;49.142;9.232;2022-09-09T04:46:11;5.30;;;1.40;;
20525;SDS011;10421;49.142;9.232;2022-09-09T04:48:38;1.13;;;1.00;;
20525;SDS011;10421;49.142;9.232;2022-09-09T04:51:05;1.40;;;1.30;;
20525;SDS011;10421;49.142;9.232;2022-09-09T04:53:34;1.70;;;1.20;;
20525;SDS011;10421;49.142;9.232;2022-09-09T04:56:01;1.93;;;1.10;;
20525;SDS011;10421;49.142;9.232;2022-09-09T04:58:29;1.47;;;1.43;;
20525;SDS011;10421;49.142;9.232;2022-09-09T05:01:02;2.80;;;1.40;;
20525;SDS011;10421;49.142;9.232;2022-09-09T05:03:33;2.03;;;1.43;;
20525;SDS011;10421;49.142;9.232;2022-09-09T05:06:07;2.57;;;1.40;;
20525;SDS011;10421;49.142;9.232;2022-09-09T05:08:35;1.30;;;1.20;;
20525;SDS011;10421;49.142;9.232;2022-09-09T05:11:03;2.93;;;1.87;;
20525;SDS011;10421;49.142;9.232;2022-09-09T05:13:30;1.63;;;1.23;;
20525;SDS011;10421;49.142;9.232;2022-09-09T05:15:57;2.07;;;1.40;;
20525;SDS011;10421;49.142;9.232;2022-09-09T05:18:24;3.00;;;1.40;;
20525;SDS011;10421;49.142;9.232;2022-09-09T05:20:52;2.40;;;1.30;;
20525;SDS011;10421;49.142;9.232;2022-09-09T05:23:24;2.30;;;0.97;;
20525;SDS011;10421;49.142;9.232;2022-09-09T05:25:54;2.30;;;1.10;;
20525;SDS011;10421;49.142;9.232;2022-09-09T05:28:22;2.47;;;1.17;;
20525;SDS011;10421;49.142;9.232;2022-09-09T05:30:55;1.33;;;1.00;;
20525;SDS011;10421;49.142;9.232;2022-09-09T05:33:25;2.60;;;1.60;;
20525;SDS011;10421;49.142;9.232;2022-09-09T05:36:00;2.10;;;1.03;;
20525;SDS011;10421;49.142;9.232;2022-09-09T05:38:29;3.27;;;0.90;;
20525;SDS011;10421;49.142;9.232;2022-09-09T05:40:57;1.40;;;1.30;;
20525;SDS011;10421;49.142;9.232;2022-09-09T05:43:25;1.57;;;1.10;;
20525;SDS011;10421;49.142;9.232;2022-09-09T05:45:59;3.13;;;1.37;;
20525;SDS011;10421;49.142;9.232;2022-09-09T05:48:27;4.00;;;2.00;;
20525;SDS011;10421;49.142;9.232;2022-09-09T05:50:55;1.80;;;1.20;;
20525;SDS011;10421;49.142;9.232;2022-09-09T05:53:24;1.07;;;1.07;;
20525;SDS011;10421;49.142;9.232;2022-09-09T05:55:57;2.30;;;1.20;;
20525;SDS011;10421;49.142;9.232;2022-09-09T05:58:25;3.80;;;1.30;;
20525;SDS011;10421;49.142;9.232;2022-09-09T06:00:52;1.23;;;1.07;;
20525;SDS011;10421;49.142;9.232;2022-09-09T06:03:25;2.13;;;1.40;;
20525;SDS011;10421;49.142;9.232;2022-09-09T06:05:56;1.80;;;1.20;;
20525;SDS011;10421;49.142;9.232;2022-09-09T06:08:25;2.50;;;0.90;;
20525;SDS011;10421;49.142;9.232;2022-09-09T06:10:52;1.70;;;1.10;;
20525;SDS011;10421;49.142;9.232;2022-09-09T06:13:19;2.00;;;1.30;;
20525;SDS011;10421;49.142;9.232;2022-09-09T06:15:49;2.30;;;1.47;;
20525;SDS011;10421;49.142;9.232;2022-09-09T06:18:17;1.37;;;1.17;;
20525;SDS011;10421;49.142;9.232;2022-09-09T06:20:52;1.30;;;1.10;;
20525;SDS011;10421;49.142;9.232;2022-09-09T06:23:20;0.80;;;0.67;;
20525;SDS011;10421;49.142;9.232;2022-09-09T06:25:48;1.63;;;1.30;;
20525;SDS011;10421;49.142;9.232;2022-09-09T06:28:16;2.33;;;1.40;;
20525;SDS011;10421;49.142;9.232;2022-09-09T06:30:43;0.90;;;0.90;;
20525;SDS011;10421;49.142;9.232;2022-09-09T06:33:10;1.20;;;1.10;;
20525;SDS011;10421;49.142;9.232;2022-09-09T06:35:37;1.20;;;1.10;;
20525;SDS011;10421;49.142;9.232;2022-09-09T06:38:03;1.47;;;1.10;;
20525;SDS011;10421;49.142;9.232;2022-09-09T06:40:30;2.90;;;1.20;;
20525;SDS011;10421;49.142;9.232;2022-09-09T06:43:00;1.63;;;1.10;;
20525;SDS011;10421;49.142;9.232;2022-09-09T06:45:27;2.83;;;1.60;;
20525;SDS011;10421;49.142;9.232;2022-09-09T06:47:54;3.40;;;1.10;;
20525;SDS011;10421;49.142;9.232;2022-09-09T06:50:21;2.60;;;0.93;;
20525;SDS011;10421;49.142;9.232;2022-09-09T06:52:48;2.13;;;1.30;;
20525;SDS011;10421;49.142;9.232;2022-09-09T06:55:15;3.80;;;1.30;;
20525;SDS011;10421;49.142;9.232;2022-09-09T06:57:43;2.70;;;1.10;;
20525;SDS011;10421;49.142;9.232;2022-09-09T07:00:12;1.93;;;1.10;;
20525;SDS011;10421;49.142;9.232;2022-09-09T07:02:39;1.37;;;1.27;;
20525;SDS011;10421;49.142;9.232;2022-09-09T07:05:06;2.43;;;1.30;;
20525;SDS011;10421;49.142;9.232;2022-09-09T07:07:34;1.70;;;1.13;;
20525;SDS011;10421;49.142;9.232;2022-09-09T07:10:01;1.67;;;1.10;;
20525;SDS011;10421;49.142;9.232;2022-09-09T07:12:29;1.43;;;1.20;;
20525;SDS011;10421;49.142;9.232;2022-09-09T07:14:56;3.03;;;1.30;;
20525;SDS011;10421;49.142;9.232;2022-09-09T07:17:24;2.63;;;1.10;;
20525;SDS011;10421;49.142;9.232;2022-09-09T07:19:50;2.53;;;1.90;;
20525;SDS011;10421;49.142;9.232;2022-09-09T07:22:21;8.43;;;1.30;;
20525;SDS011;10421;49.142;9.232;2022-09-09T07:24:48;1.50;;;1.40;;
20525;SDS011;10421;49.142;9.232;2022-09-09T07:27:15;3.03;;;1.50;;
20525;SDS011;10421;49.142;9.232;2022-09-09T07:29:41;1.70;;;1.40;;
20525;SDS011;10421;49.142;9.232;2022-09-09T07:32:10;1.53;;;1.30;;
20525;SDS011;10421;49.142;9.232;2022-09-09T07:34:38;2.23;;;1.77;;
20525;SDS011;10421;49.142;9.232;2022-09-09T07:37:05;2.10;;;1.30;;
20525;SDS011;10421;49.142;9.232;2022-09-09T07:39:31;1.83;;;1.30;;
20525;SDS011;10421;49.142;9.232;2022-09-09T07:41:58;2.40;;;0.87;;
20525;SDS011;10421;49.142;9.232;2022-09-09T07:44:25;2.97;;;1.57;;
20525;SDS011;10421;49.142;9.232;2022-09-09T07:46:53;2.30;;;1.43;;
20525;SDS011;10421;49.142;9.232;2022-09-09T07:49:19;1.97;;;1.00;;
20525;SDS011;10421;49.142;9.232;2022-09-09T07:51:48;1.60;;;1.50;;
20525;SDS011;10421;49.142;9.232;2022-09-09T07:54:16;3.07;;;2.07;;
20525;SDS011;10421;49.142;9.232;2022-09-09T07:56:45;2.60;;;1.40;;
20525;SDS011;10421;49.142;9.232;2022-09-09T07:59:13;1.60;;;1.50;;
20525;SDS011;10421;49.142;9.232;2022-09-09T08:01:40;1.43;;;1.33;;
20525;SDS011;10421;49.142;9.232;2022-09-09T08:04:09;4.50;;;1.63;;
20525;SDS011;10421;49.142;9.232;2022-09-09T08:06:40;3.63;;;1.40;;
20525;SDS011;10421;49.142;9.232;2022-09-09T08:09:09;2.53;;;1.80;;
20525;SDS011;10421;49.142;9.232;2022-09-09T08:11:36;2.00;;;1.50;;
20525;SDS011;10421;49.142;9.232;2022-09-09T08:14:04;2.23;;;1.00;;
20525;SDS011;10421;49.142;9.232;2022-09-09T08:16:33;4.50;;;1.70;;
20525;SDS011;10421;49.142;9.232;2022-09-09T08:19:01;1.90;;;1.20;;
20525;SDS011;10421;49.142;9.232;2022-09-09T08:21:29;1.40;;;1.10;;
20525;SDS011;10421;49.142;9.232;2022-09-09T08:23:58;2.90;;;1.67;;
20525;SDS011;10421;49.142;9.232;2022-09-09T08:26:28;5.43;;;1.57;;
20525;SDS011;10421;49.142;9.232;2022-09-09T08:28:56;2.60;;;2.30;;
20525;SDS011;10421;49.142;9.232;2022-09-09T08:31:24;4.20;;;1.30;;
20525;SDS011;10421;49.142;9.232;2022-09-09T08:33:53;3.73;;;1.67;;
20525;SDS011;10421;49.142;9.232;2022-09-09T08:36:21;3.03;;;0.90;;
20525;SDS011;10421;49.142;9.232;2022-09-09T08:38:49;2.20;;;1.20;;
20525;SDS011;10421;49.142;9.232;2022-09-09T08:41:26;5.90;;;1.00;;
20525;SDS011;10421;49.142;9.232;2022-09-09T08:44:22;5.97;;;1.57;;
20525;SDS011;10421;49.142;9.232;2022-09-09T08:46:57;2.93;;;1.00;;
20525;SDS011;10421;49.142;9.232;2022-09-09T08:49:40;2.10;;;1.07;;
20525;SDS011;10421;49.142;9.232;2022-09-09T08:52:19;1.90;;;0.90;;
20525;SDS011;10421;49.142;9.232;2022-09-09T08:54:52;1.10;;;0.80;;
20525;SDS011;10421;49.142;9.232;2022-09-09T08:57:23;2.30;;;0.77;;
20525;SDS011;10421;49.142;9.232;2022-09-09T08:59:52;2.57;;;1.00;;
20525;SDS011;10421;49.142;9.232;2022-09-09T09:02:21;1.03;;;0.93;;
20525;SDS011;10421;49.142;9.232;2022-09-09T09:05:06;3.80;;;0.83;;
20525;SDS011;10421;49.142;9.232;2022-09-09T09:07:50;2.40;;;0.80;;
20525;SDS011;10421;49.142;9.232;2022-09-09T09:10:29;2.97;;;1.10;;
20525;SDS011;10421;49.142;9.232;2022-09-09T09:13:13;1.30;;;0.90;;
20525;SDS011;10421;49.142;9.232;2022-09-09T09:15:46;2.63;;;1.67;;
20525;SDS011;10421;49.142;9.232;2022-09-09T09:18:18;2.70;;;1.90;;
20525;SDS011;10421;49.142;9.232;2022-09-09T09:20:50;3.07;;;1.40;;
20525;SDS011;10421;49.142;9.232;2022-09-09T09:23:22;3.43;;;1.17;;
20525;SDS011;10421;49.142;9.232;2022-09-09T09:25:52;1.83;;;1.30;;
20525;SDS011;10421;49.142;9.232;2022-09-09T09:28:26;3.07;;;1.10;;
20525;SDS011;10421;49.142;9.232;2022-09-09T09:30:58;1.20;;;1.00;;
20525;SDS011;10421;49.142;9.232;2022-09-09T09:33:30;2.77;;;2.03;;
20525;SDS011;10421;49.142;9.232;2022-09-09T09:36:06;5.03;;;2.17;;
20525;SDS011;10421;49.142;9.232;2022-09-09T09:38:34;3.27;;;1.00;;
20525;SDS011;10421;49.142;9.232;2022-09-09T09:41:01;2.90;;;1.10;;
20525;SDS011;10421;49.142;9.232;2022-09-09T09:43:30;2.90;;;1.10;;
20525;SDS011;10421;49.142;9.232;2022-09-09T09:45:59;3.93;;;1.80;;
20525;SDS011;10421;49.142;9.232;2022-09-09T09:48:26;4.53;;;2.10;;
20525;SDS011;10421;49.142;9.232;2022-09-09T09:50:54;5.13;;;1.87;;
20525;SDS011;10421;49.142;9.232;2022-09-09T09:53:23;2.10;;;1.47;;
20525;SDS011;10421;49.142;9.232;2022-09-09T09:55:56;2.90;;;1.63;;
20525;SDS011;10421;49.142;9.232;2022-09-09T09:58:25;2.70;;;1.27;;
20525;SDS011;10421;49.142;9.232;2022-09-09T10:00:54;4.47;;;1.53;;
20525;SDS011;10421;49.142;9.232;2022-09-09T10:03:22;6.53;;;1.53;;
20525;SDS011;10421;49.142;9.232;2022-09-09T10:05:50;2.97;;;2.23;;
20525;SDS011;10421;49.142;9.232;2022-09-09T10:08:18;7.27;;;2.00;;
20525;SDS011;10421;49.142;9.232;2022-09-09T10:10:49;10.10;;;2.30;;
20525;SDS011;10421;49.142;9.232;2022-09-09T10:13:23;4.83;;;1.77;;
20525;SDS011;10421;49.142;9.232;2022-09-09T10:16:00;3.63;;;1.50;;
20525;SDS011;10421;49.142;9.232;2022-09-09T10:18:38;3.50;;;1.83;;
20525;SDS011;10421;49.142;9.232;2022-09-09T10:21:15;1.87;;;1.30;;
20525;SDS011;10421;49.142;9.232;2022-09-09T10:23:57;3.47;;;1.30;;
20525;SDS011;10421;49.142;9.232;2022-09-09T10:26:40;3.37;;;1.30;;
20525;SDS011;10421;49.142;9.232;2022-09-09T10:29:17;4.30;;;1.43;;
20525;SDS011;10421;49.142;9.232;2022-09-09T10:32:01;4.43;;;1.33;;
20525;SDS011;10421;49.142;9.232;2022-09-09T10:34:43;1.30;;;1.00;;
20525;SDS011;10421;49.142;9.232;2022-09-09T10:37:25;2.70;;;1.00;;
20525;SDS011;10421;49.142;9.232;2022-09-09T10:40:02;2.57;;;1.73;;
20525;SDS011;10421;49.142;9.232;2022-09-09T10:42:41;3.53;;;0.77;;
20525;SDS011;10421;49.142;9.232;2022-09-09T10:45:13;1.80;;;0.80;;
20525;SDS011;10421;49.142;9.232;2022-09-09T10:50:45;1.53;;;1.10;;
20525;SDS011;10421;49.142;9.232;2022-09-09T10:53:22;3.50;;;1.13;;
20525;SDS011;10421;49.142;9.232;2022-09-09T10:56:01;3.30;;;1.10;;
20525;SDS011;10421;49.142;9.232;2022-09-09T10:58:34;3.33;;;1.30;;
20525;SDS011;10421;49.142;9.232;2022-09-09T11:01:09;2.70;;;1.20;;
20525;SDS011;10421;49.142;9.232;2022-09-09T11:03:43;2.00;;;1.10;;
20525;SDS011;10421;49.142;9.232;2022-09-09T11:06:16;6.43;;;1.47;;
20525;SDS011;10421;49.142;9.232;2022-09-09T11:08:45;3.00;;;0.93;;
20525;SDS011;10421;49.142;9.232;2022-09-09T11:11:15;1.60;;;1.33;;
20525;SDS011;10421;49.142;9.232;2022-09-09T11:13:46;2.97;;;1.37;;
20525;SDS011;10421;49.142;9.232;2022-09-09T11:16:21;4.43;;;0.83;;
20525;SDS011;10421;49.142;9.232;2022-09-09T11:18:54;2.70;;;1.03;;
20525;SDS011;10421;49.142;9.232;2022-09-09T11:21:27;5.97;;;1.10;;
20525;SDS011;10421;49.142;9.232;2022-09-09T11:23:57;5.60;;;1.27;;
20525;SDS011;10421;49.142;9.232;2022-09-09T11:26:30;1.60;;;1.27;;
20525;SDS011;10421;49.142;9.232;2022-09-09T11:29:19;1.27;;;0.90;;
20525;SDS011;10421;49.142;9.232;2022-09-09T11:32:07;2.00;;;0.90;;
20525;SDS011;10421;49.142;9.232;2022-09-09T11:34:52;2.87;;;1.10;;
20525;SDS011;10421;49.142;9.232;2022-09-09T11:37:41;3.70;;;1.20;;
20525;SDS011;10421;49.142;9.232;2022-09-09T11:40:19;2.63;;;0.93;;
20525;SDS011;10421;49.142;9.232;2022-09-09T11:42:59;3.10;;;1.40;;
20525;SDS011;10421;49.142;9.232;2022-09-09T11:45:29;3.47;;;1.23;;
20525;SDS011;10421;49.142;9.232;2022-09-09T11:47:58;7.20;;;1.00;;
20525;SDS011;10421;49.142;9.232;2022-09-09T11:50:34;1.10;;;1.00;;
20525;SDS011;10421;49.142;9.232;2022-09-09T11:53:03;4.67;;;1.07;;
20525;SDS011;10421;49.142;9.232;2022-09-09T11:58:41;0.70;;;0.70;;
20525;SDS011;10421;49.142;9.232;2022-09-09T12:01:13;0.83;;;0.80;;
20525;SDS011;10421;49.142;9.232;2022-09-09T12:03:42;1.93;;;0.90;;
20525;SDS011;10421;49.142;9.232;2022-09-09T12:06:15;1.80;;;0.70;;
20525;SDS011;10421;49.142;9.232;2022-09-09T12:08:46;1.30;;;0.80;;
20525;SDS011;10421;49.142;9.232;2022-09-09T12:11:26;0.70;;;0.70;;
20525;SDS011;10421;49.142;9.232;2022-09-09T12:13:54;5.80;;;0.80;;
20525;SDS011;10421;49.142;9.232;2022-09-09T12:16:32;1.10;;;0.73;;
20525;SDS011;10421;49.142;9.232;2022-09-09T12:19:03;0.60;;;0.60;;
20525;SDS011;10421;49.142;9.232;2022-09-09T12:21:35;1.00;;;0.73;;
20525;SDS011;10421;49.142;9.232;2022-09-09T12:24:08;0.70;;;0.70;;
20525;SDS011;10421;49.142;9.232;2022-09-09T12:26:37;0.60;;;0.60;;
20525;SDS011;10421;49.142;9.232;2022-09-09T12:29:12;0.80;;;0.70;;
20525;SDS011;10421;49.142;9.232;2022-09-09T12:31:50;1.37;;;0.80;;
20525;SDS011;10421;49.142;9.232;2022-09-09T12:34:27;1.20;;;0.70;;
20525;SDS011;10421;49.142;9.232;2022-09-09T12:37:03;1.00;;;0.80;;
20525;SDS011;10421;49.142;9.232;2022-09-09T12:39:40;2.93;;;0.70;;
20525;SDS011;10421;49.142;9.232;2022-09-09T12:42:18;0.90;;;0.90;;
20525;SDS011;10421;49.142;9.232;2022-09-09T12:44:56;1.07;;;0.80;;
20525;SDS011;10421;49.142;9.232;2022-09-09T12:47:25;2.07;;;0.57;;
20525;SDS011;10421;49.142;9.232;2022-09-09T12:50:00;1.70;;;0.77;;
20525;SDS011;10421;49.142;9.232;2022-09-09T12:52:29;1.00;;;0.80;;
20525;SDS011;10421;49.142;9.232;2022-09-09T12:54:59;1.07;;;0.70;;
20525;SDS011;10421;49.142;9.232;2022-09-09T12:57:29;0.60;;;0.60;;
20525;SDS011;10421;49.142;9.232;2022-09-09T13:00:11;0.80;;;0.80;;
20525;SDS011;10421;49.142;9.232;2022-09-09T13:02:48;1.53;;;0.80;;
20525;SDS011;10421;49.142;9.232;2022-09-09T13:05:17;1.27;;;0.67;;
20525;SDS011;10421;49.142;9.232;2022-09-09T13:07:47;0.67;;;0.67;;
20525;SDS011;10421;49.142;9.232;2022-09-09T13:10:15;1.60;;;0.67;;
20525;SDS011;10421;49.142;9.232;2022-09-09T13:12:48;1.07;;;0.77;;
20525;SDS011;10421;49.142;9.232;2022-09-09T13:15:17;1.73;;;0.90;;
20525;SDS011;10421;49.142;9.232;2022-09-09T13:17:54;1.13;;;0.73;;
20525;SDS011;10421;49.142;9.232;2022-09-09T13:20:23;1.33;;;0.70;;
20525;SDS011;10421;49.142;9.232;2022-09-09T13:22:52;4.83;;;0.77;;
20525;SDS011;10421;49.142;9.232;2022-09-09T13:25:21;1.33;;;0.67;;
20525;SDS011;10421;49.142;9.232;2022-09-09T13:27:52;3.03;;;0.80;;
20525;SDS011;10421;49.142;9.232;2022-09-09T13:30:24;1.03;;;0.70;;
20525;SDS011;10421;49.142;9.232;2022-09-09T13:33:05;1.00;;;0.90;;
20525;SDS011;10421;49.142;9.232;2022-09-09T13:35:45;1.07;;;1.07;;
20525;SDS011;10421;49.142;9.232;2022-09-09T13:38:16;2.63;;;1.03;;
20525;SDS011;10421;49.142;9.232;2022-09-09T13:40:53;0.83;;;0.80;;
20525;SDS011;10421;49.142;9.232;2022-09-09T13:43:22;1.70;;;0.70;;
20525;SDS011;10421;49.142;9.232;2022-09-09T13:45:55;1.57;;;0.57;;
20525;SDS011;10421;49.142;9.232;2022-09-09T13:48:23;2.80;;;1.30;;
20525;SDS011;10421;49.142;9.232;2022-09-09T13:50:55;0.90;;;0.77;;
20525;SDS011;10421;49.142;9.232;2022-09-09T13:53:24;1.73;;;0.83;;
20525;SDS011;10421;49.142;9.232;2022-09-09T13:55:51;3.17;;;0.80;;
20525;SDS011;10421;49.142;9.232;2022-09-09T13:58:19;1.50;;;0.80;;
20525;SDS011;10421;49.142;9.232;2022-09-09T14:00:47;2.27;;;0.97;;
20525;SDS011;10421;49.142;9.232;2022-09-09T14:03:14;1.10;;;0.80;;
20525;SDS011;10421;49.142;9.232;2022-09-09T14:05:42;2.03;;;0.83;;
20525;SDS011;10421;49.142;9.232;2022-09-09T14:08:13;1.10;;;0.70;;
20525;SDS011;10421;49.142;9.232;2022-09-09T14:10:53;1.50;;;0.90;;
20525;SDS011;10421;49.142;9.232;2022-09-09T14:13:23;2.57;;;0.80;;
20525;SDS011;10421;49.142;9.232;2022-09-09T14:15:50;2.50;;;0.80;;
20525;SDS011;10421;49.142;9.232;2022-09-09T14:18:18;2.77;;;0.80;;
20525;SDS011;10421;49.142;9.232;2022-09-09T14:20:47;4.17;;;1.00;;
20525;SDS011;10421;49.142;9.232;2022-09-09T14:23:15;2.57;;;1.43;;
20525;SDS011;10421;49.142;9.232;2022-09-09T14:25:43;2.90;;;1.10;;
20525;SDS011;10421;49.142;9.232;2022-09-09T14:28:10;4.80;;;1.00;;
20525;SDS011;10421;49.142;9.232;2022-09-09T14:30:38;1.53;;;0.60;;
20525;SDS011;10421;49.142;9.232;2022-09-09T14:33:06;1.57;;;0.93;;
20525;SDS011;10421;49.142;9.232;2022-09-09T14:35:33;5.40;;;1.57;;
20525;SDS011;10421;49.142;9.232;2022-09-09T14:38:01;5.13;;;1.10;;
20525;SDS011;10421;49.142;9.232;2022-09-09T14:40:28;1.23;;;1.00;;
20525;SDS011;10421;49.142;9.232;2022-09-09T14:42:57;1.43;;;0.80;;
20525;SDS011;10421;49.142;9.232;2022-09-09T14:45:24;6.60;;;1.30;;
20525;SDS011;10421;49.142;9.232;2022-09-09T14:47:51;1.33;;;0.70;;
20525;SDS011;10421;49.142;9.232;2022-09-09T14:50:18;1.40;;;0.70;;
20525;SDS011;10421;49.142;9.232;2022-09-09T14:52:46;2.57;;;0.80;;
20525;SDS011;10421;49.142;9.232;2022-09-09T14:55:13;2.17;;;0.90;;
20525;SDS011;10421;49.142;9.232;2022-09-09T14:57:40;1.27;;;0.80;;
20525;SDS011;10421;49.142;9.232;2022-09-09T15:00:10;6.37;;;1.00;;
20525;SDS011;10421;49.142;9.232;2022-09-09T15:02:37;3.10;;;0.90;;
20525;SDS011;10421;49.142;9.232;2022-09-09T15:05:04;1.53;;;0.73;;
20525;SDS011;10421;49.142;9.232;2022-09-09T15:07:32;1.67;;;0.80;;
20525;SDS011;10421;49.142;9.232;2022-09-09T15:09:59;1.53;;;0.83;;
20525;SDS011;10421;49.142;9.232;2022-09-09T15:12:25;3.07;;;0.80;;
20525;SDS011;10421;49.142;9.232;2022-09-09T15:14:53;2.70;;;1.03;;
20525;SDS011;10421;49.142;9.232;2022-09-09T15:17:22;2.00;;;0.83;;
20525;SDS011;10421;49.142;9.232;2022-09-09T15:19:52;2.27;;;1.00;;